createdAt,value
2022-11-29T00:01:23.472Z,100907.00
2022-11-29T00:03:50.790Z,100901.63
2022-11-29T00:06:23.332Z,100889.34
2022-11-29T00:08:50.570Z,100897.13
2022-11-29T00:11:38.911Z,100890.81
2022-11-29T00:14:08.001Z,100888.59
2022-11-29T00:16:36.487Z,100888.72
2022-11-29T00:19:03.665Z,100885.25
2022-11-29T00:21:30.406Z,100879.66
2022-11-29T00:23:57.259Z,100884.81
2022-11-29T00:26:24.412Z,100887.81
2022-11-29T00:28:51.797Z,100890.03
2022-11-29T00:31:27.934Z,100886.06
2022-11-29T00:33:54.657Z,100882.81
2022-11-29T00:36:21.459Z,100884.78
2022-11-29T00:38:48.188Z,100886.88
2022-11-29T00:41:15.118Z,100884.44
2022-11-29T00:43:42.083Z,100883.16
2022-11-29T00:46:09.744Z,100889.34
2022-11-29T00:48:37.186Z,100885.22
2022-11-29T00:51:05.280Z,100886.81
2022-11-29T00:53:33.279Z,100889.44
2022-11-29T00:55:59.946Z,100890.66
2022-11-29T00:58:26.820Z,100894.97
2022-11-29T01:00:54.242Z,100892.47
2022-11-29T01:03:21.440Z,100884.94
2022-11-29T01:05:48.726Z,100880.00
2022-11-29T01:08:15.851Z,100887.97
2022-11-29T01:10:42.627Z,100887.50
2022-11-29T01:13:09.972Z,100886.47
2022-11-29T01:15:37.064Z,100889.66
2022-11-29T01:18:03.950Z,100882.72
2022-11-29T01:20:30.708Z,100886.28
2022-11-29T01:22:57.526Z,100879.53
2022-11-29T01:25:24.424Z,100888.91
2022-11-29T01:27:51.124Z,100893.22
2022-11-29T01:30:17.900Z,100891.53
2022-11-29T01:32:44.646Z,100882.16
2022-11-29T01:35:11.373Z,100882.47
2022-11-29T01:37:38.175Z,100876.38
2022-11-29T01:40:05.549Z,100879.06
2022-11-29T01:42:32.243Z,100883.41
2022-11-29T01:45:19.643Z,100879.00
2022-11-29T01:47:47.653Z,100877.22
2022-11-29T01:50:14.769Z,100880.50
2022-11-29T01:52:42.049Z,100880.31
2022-11-29T01:55:10.190Z,100879.63
2022-11-29T01:57:40.259Z,100874.41
2022-11-29T02:00:08.779Z,100876.91
2022-11-29T02:02:47.287Z,100874.97
2022-11-29T02:05:16.889Z,100874.84
2022-11-29T02:07:46.355Z,100883.13
2022-11-29T02:10:15.834Z,100866.63
2022-11-29T02:13:06.269Z,100879.75
2022-11-29T02:15:50.484Z,100875.53
2022-11-29T02:18:48.752Z,100873.72
2022-11-29T02:21:45.202Z,100871.31
2022-11-29T02:24:45.452Z,100870.09
2022-11-29T02:27:42.967Z,100870.09
2022-11-29T02:30:27.804Z,100874.50
2022-11-29T02:33:03.458Z,100878.16
2022-11-29T02:35:52.044Z,100875.81
2022-11-29T02:38:43.066Z,100877.31
2022-11-29T02:41:41.693Z,100886.31
2022-11-29T02:44:08.532Z,100890.44
2022-11-29T02:46:35.199Z,100885.81
2022-11-29T02:49:20.830Z,100892.75
2022-11-29T02:51:55.702Z,100894.81
2022-11-29T02:54:49.241Z,100902.34
2022-11-29T02:57:21.779Z,100895.13
2022-11-29T03:00:00.079Z,100901.88
2022-11-29T03:03:00.150Z,100893.13
2022-11-29T03:05:42.909Z,100893.59
2022-11-29T03:08:15.490Z,100904.66
2022-11-29T03:10:49.789Z,100906.47
2022-11-29T03:13:44.136Z,100900.16
2022-11-29T03:16:37.184Z,100915.91
2022-11-29T03:19:32.892Z,100914.03
2022-11-29T03:22:17.779Z,100911.59
2022-11-29T03:24:54.721Z,100911.06
2022-11-29T03:27:28.835Z,100913.66
2022-11-29T03:30:00.649Z,100920.69
2022-11-29T03:32:43.023Z,100927.91
2022-11-29T03:35:15.868Z,100923.78
2022-11-29T03:37:55.462Z,100918.88
2022-11-29T03:40:50.137Z,100929.03
2022-11-29T03:43:41.722Z,100929.03
2022-11-29T03:46:35.269Z,100922.72
2022-11-29T03:49:35.757Z,100931.78
2022-11-29T03:52:24.798Z,100933.47
2022-11-29T03:55:03.286Z,100931.50
2022-11-29T03:57:51.371Z,100925.75
2022-11-29T04:00:19.007Z,100925.03
2022-11-29T04:03:04.341Z,100931.97
2022-11-29T04:05:36.804Z,100932.97
2022-11-29T04:08:17.828Z,100932.22
2022-11-29T04:11:15.525Z,100935.09
2022-11-29T04:14:13.955Z,100934.28
2022-11-29T04:17:18.180Z,100943.78
2022-11-29T04:19:59.938Z,100935.19
2022-11-29T04:22:33.157Z,100941.94
2022-11-29T04:25:23.050Z,100946.72
2022-11-29T04:28:26.920Z,100942.75
2022-11-29T04:31:11.464Z,100947.75
2022-11-29T04:34:23.242Z,100949.94
2022-11-29T04:37:39.539Z,100949.66
2022-11-29T04:40:33.902Z,100954.16
2022-11-29T04:43:16.051Z,100963.72
2022-11-29T04:45:42.684Z,100950.84
2022-11-29T04:48:40.158Z,100960.50
2022-11-29T04:51:25.855Z,100963.97
2022-11-29T04:54:09.348Z,100956.75
2022-11-29T04:57:24.081Z,100962.53
2022-11-29T04:59:53.717Z,100965.44
2022-11-29T05:02:54.247Z,100969.16
2022-11-29T05:05:42.602Z,100965.88
2022-11-29T05:08:38.764Z,100968.16
2022-11-29T05:11:05.392Z,100963.66
2022-11-29T05:13:58.719Z,100975.22
2022-11-29T05:16:46.567Z,100975.91
2022-11-29T05:19:34.359Z,100994.34
2022-11-29T05:22:34.328Z,100992.06
2022-11-29T05:25:42.323Z,100987.78
2022-11-29T05:28:25.989Z,100993.84
2022-11-29T05:31:26.903Z,100992.16
2022-11-29T05:34:03.796Z,100995.78
2022-11-29T05:36:45.295Z,100989.63
2022-11-29T05:39:20.977Z,100991.22
2022-11-29T05:42:01.487Z,100994.34
2022-11-29T05:44:37.275Z,100992.06
2022-11-29T05:47:10.264Z,100998.34
2022-11-29T05:50:04.149Z,101002.53
2022-11-29T05:52:50.719Z,101000.00
2022-11-29T05:55:41.099Z,101000.00
2022-11-29T05:58:41.745Z,101007.53
2022-11-29T06:01:20.528Z,101007.44
2022-11-29T06:04:10.322Z,101015.31
2022-11-29T06:06:42.973Z,101017.84
2022-11-29T06:09:13.715Z,101014.88
2022-11-29T06:11:55.063Z,101014.97
2022-11-29T06:14:49.916Z,101015.31
2022-11-29T06:17:25.604Z,101017.50
2022-11-29T06:20:26.514Z,101021.91
2022-11-29T06:23:31.055Z,101020.63
2022-11-29T06:26:09.747Z,101018.78
2022-11-29T06:28:47.124Z,101017.00
2022-11-29T06:31:38.663Z,101028.31
2022-11-29T06:34:20.676Z,101027.75
2022-11-29T06:37:15.677Z,101030.00
2022-11-29T06:39:42.730Z,101035.34
2022-11-29T06:42:09.434Z,101032.13
2022-11-29T06:44:36.504Z,101032.91
2022-11-29T06:47:08.969Z,101028.69
2022-11-29T06:49:49.334Z,101025.88
2022-11-29T06:52:34.837Z,101038.75
2022-11-29T06:55:08.237Z,101040.16
2022-11-29T06:57:52.810Z,101034.25
2022-11-29T07:00:28.404Z,101038.56
2022-11-29T07:02:55.258Z,101039.84
2022-11-29T07:05:31.953Z,101037.88
2022-11-29T07:08:04.247Z,101039.56
2022-11-29T07:10:33.455Z,101041.81
2022-11-29T07:13:00.586Z,101035.00
2022-11-29T07:15:28.256Z,101037.38
2022-11-29T07:18:24.222Z,101042.16
2022-11-29T07:21:18.045Z,101043.75
2022-11-29T07:24:05.075Z,101044.25
2022-11-29T07:26:55.159Z,101045.88
2022-11-29T07:30:02.524Z,101052.53
2022-11-29T07:32:47.302Z,101047.28
2022-11-29T07:35:29.536Z,101049.13
2022-11-29T07:37:57.583Z,101048.03
2022-11-29T07:40:37.559Z,101049.81
2022-11-29T07:43:38.779Z,101054.78
2022-11-29T07:46:05.761Z,101045.25
2022-11-29T07:48:32.505Z,101060.09
2022-11-29T07:51:00.749Z,101061.75
2022-11-29T07:53:27.588Z,101077.16
2022-11-29T07:55:54.821Z,101063.84
2022-11-29T07:58:21.677Z,101080.06
2022-11-29T08:00:48.407Z,101078.69
2022-11-29T08:03:15.193Z,101084.44
2022-11-29T08:05:46.292Z,101075.16
2022-11-29T08:08:13.567Z,101080.13
2022-11-29T08:10:40.384Z,101075.53
2022-11-29T08:13:07.116Z,101082.56
2022-11-29T08:15:37.005Z,101076.47
2022-11-29T08:18:04.017Z,101076.47
2022-11-29T08:20:30.599Z,101079.09
2022-11-29T08:23:00.467Z,101067.25
2022-11-29T08:25:28.242Z,101072.09
2022-11-29T08:27:56.110Z,101064.53
2022-11-29T08:30:23.588Z,101053.56
2022-11-29T08:32:51.775Z,101058.25
2022-11-29T08:35:20.210Z,101062.75
2022-11-29T08:37:47.158Z,101061.13
2022-11-29T08:40:15.103Z,101062.03
2022-11-29T08:42:41.869Z,101059.03
2022-11-29T08:45:09.934Z,101051.63
2022-11-29T08:47:38.070Z,101055.56
2022-11-29T08:50:16.524Z,101046.47
2022-11-29T08:53:07.261Z,101044.16
2022-11-29T08:55:40.358Z,101039.84
2022-11-29T08:58:12.392Z,101044.34
2022-11-29T09:00:39.633Z,101041.44
2022-11-29T09:03:25.895Z,101043.13
2022-11-29T09:05:53.716Z,101044.25
2022-11-29T09:08:20.486Z,101043.59
2022-11-29T09:10:47.589Z,101038.44
2022-11-29T09:13:14.325Z,101045.31
2022-11-29T09:15:43.356Z,101044.72
2022-11-29T09:18:10.326Z,101043.50
2022-11-29T09:20:37.093Z,101044.72
2022-11-29T09:23:04.399Z,101044.16
2022-11-29T09:25:31.112Z,101037.09
2022-11-29T09:28:01.844Z,101033.19
2022-11-29T09:30:32.017Z,101033.63
2022-11-29T09:33:05.130Z,101032.94
2022-11-29T09:35:33.030Z,101033.53
2022-11-29T09:38:00.316Z,101045.00
2022-11-29T09:40:52.768Z,101043.09
2022-11-29T09:43:38.081Z,101039.63
2022-11-29T09:46:27.537Z,101046.84
2022-11-29T09:49:29.514Z,101038.88
2022-11-29T09:52:13.642Z,101047.56
2022-11-29T09:55:10.176Z,101046.59
2022-11-29T09:57:38.623Z,101042.38
2022-11-29T10:00:14.806Z,101039.63
2022-11-29T10:02:47.902Z,101046.91
2022-11-29T10:05:24.200Z,101041.50
2022-11-29T10:07:55.696Z,101041.75
2022-11-29T10:10:40.591Z,101041.66
2022-11-29T10:13:16.768Z,101042.53
2022-11-29T10:15:45.781Z,101041.88
2022-11-29T10:18:32.466Z,101039.63
2022-11-29T10:21:06.895Z,101035.16
2022-11-29T10:23:42.633Z,101034.22
2022-11-29T10:26:11.964Z,101034.94
2022-11-29T10:28:45.027Z,101037.28
2022-11-29T10:31:43.992Z,101033.88
2022-11-29T10:34:18.894Z,101029.41
2022-11-29T10:37:02.769Z,101020.66
2022-11-29T10:39:37.337Z,101021.22
2022-11-29T10:42:25.970Z,101016.00
2022-11-29T10:44:52.788Z,101024.41
2022-11-29T10:47:19.460Z,101016.63
2022-11-29T10:49:46.211Z,101007.69
2022-11-29T10:52:23.118Z,101014.81
2022-11-29T10:54:57.881Z,101016.31
2022-11-29T10:57:24.607Z,101008.63
2022-11-29T11:00:09.901Z,101007.19
2022-11-29T11:02:37.806Z,101006.00
2022-11-29T11:05:13.341Z,101018.59
2022-11-29T11:07:40.713Z,101019.72
2022-11-29T11:10:37.368Z,101012.78
2022-11-29T11:13:21.010Z,101008.94
2022-11-29T11:15:48.024Z,101010.06
2022-11-29T11:18:24.201Z,101009.63
2022-11-29T11:20:57.186Z,101012.13
2022-11-29T11:23:27.407Z,101004.72
2022-11-29T11:26:00.965Z,101005.16
2022-11-29T11:28:32.348Z,101010.34
2022-11-29T11:31:05.007Z,101010.41
2022-11-29T11:33:35.285Z,101009.78
2022-11-29T11:36:03.869Z,101016.41
2022-11-29T11:38:31.596Z,101011.63
2022-11-29T11:41:20.459Z,101020.22
2022-11-29T11:44:14.966Z,101027.06
2022-11-29T11:46:48.312Z,101008.34
2022-11-29T11:49:32.525Z,101019.03
2022-11-29T11:52:00.879Z,101025.59
2022-11-29T11:54:29.527Z,101028.22
2022-11-29T11:56:56.657Z,101020.47
2022-11-29T11:59:26.675Z,101016.25
2022-11-29T12:01:53.262Z,101022.66
2022-11-29T12:04:25.753Z,101019.09
2022-11-29T12:07:01.857Z,101015.78
2022-11-29T12:09:33.897Z,101011.00
2022-11-29T12:12:19.384Z,101012.78
2022-11-29T12:15:00.715Z,101016.81
2022-11-29T12:17:36.737Z,101009.03
2022-11-29T12:20:24.986Z,101012.09
2022-11-29T12:23:12.595Z,101017.31
2022-11-29T12:25:52.494Z,101003.06
2022-11-29T12:28:21.146Z,101012.13
2022-11-29T12:30:57.171Z,101011.50
2022-11-29T12:33:49.749Z,101014.50
2022-11-29T12:36:22.286Z,100997.44
2022-11-29T12:39:03.662Z,101004.00
2022-11-29T12:41:42.337Z,101009.38
2022-11-29T12:44:40.342Z,101008.69
2022-11-29T12:47:37.909Z,101004.19
2022-11-29T12:50:26.602Z,101003.84
2022-11-29T12:53:11.307Z,101004.22
2022-11-29T12:55:51.896Z,101012.41
2022-11-29T12:58:32.075Z,100997.38
2022-11-29T13:01:01.853Z,101005.22
2022-11-29T13:03:49.990Z,101004.56
2022-11-29T13:06:19.669Z,101001.00
2022-11-29T13:09:05.032Z,101009.81
2022-11-29T13:11:48.324Z,101010.59
2022-11-29T13:14:42.163Z,101005.34
2022-11-29T13:17:14.970Z,101001.22
2022-11-29T13:19:53.722Z,101002.81
2022-11-29T13:22:26.570Z,101014.19
2022-11-29T13:25:13.062Z,101010.97
2022-11-29T13:27:46.317Z,101010.34
2022-11-29T13:30:16.551Z,101015.28
2022-11-29T13:33:05.319Z,101020.63
2022-11-29T13:35:49.032Z,101021.66
2022-11-29T13:38:25.075Z,101023.00
2022-11-29T13:41:02.278Z,101027.84
2022-11-29T13:43:39.349Z,101029.25
2022-11-29T13:46:44.035Z,101029.69
2022-11-29T13:49:57.249Z,101028.56
2022-11-29T13:52:41.005Z,101024.06
2022-11-29T13:55:11.438Z,101036.34
2022-11-29T13:58:14.759Z,101034.84
2022-11-29T14:00:44.143Z,101033.09
2022-11-29T14:03:24.151Z,101034.22
2022-11-29T14:05:52.203Z,101031.97
2022-11-29T14:09:02.363Z,101029.44
2022-11-29T14:11:43.044Z,101033.00
2022-11-29T14:14:26.440Z,101035.00
2022-11-29T14:16:58.949Z,101024.09
2022-11-29T14:19:34.235Z,101031.88
2022-11-29T14:22:07.250Z,101024.09
2022-11-29T14:24:36.631Z,101020.91
2022-11-29T14:27:06.012Z,101025.31
2022-11-29T14:29:51.078Z,101021.97
2022-11-29T14:32:46.194Z,101023.84
2022-11-29T14:35:13.275Z,101019.53
2022-11-29T14:37:47.542Z,101026.66
2022-11-29T14:40:23.458Z,101022.66
2022-11-29T14:42:51.049Z,101016.88
2022-11-29T14:45:36.039Z,101011.88
2022-11-29T14:48:03.410Z,101000.91
2022-11-29T14:50:39.801Z,101006.47
2022-11-29T14:53:27.540Z,101001.47
2022-11-29T14:56:29.051Z,101014.25
2022-11-29T14:59:33.084Z,101009.88
2022-11-29T15:02:07.757Z,101007.03
2022-11-29T15:04:36.621Z,101010.34
2022-11-29T15:07:05.895Z,101001.38
2022-11-29T15:09:34.109Z,101007.69
2022-11-29T15:12:17.144Z,101010.50
2022-11-29T15:15:10.212Z,101010.59
2022-11-29T15:17:45.903Z,101016.63
2022-11-29T15:20:46.305Z,101014.00
2022-11-29T15:23:18.505Z,101018.59
2022-11-29T15:25:53.661Z,101024.69
2022-11-29T15:28:26.759Z,101024.97
2022-11-29T15:31:06.279Z,101029.84
2022-11-29T15:33:36.157Z,101026.16
2022-11-29T15:36:08.573Z,101029.94
2022-11-29T15:38:44.448Z,101031.34
2022-11-29T15:41:27.435Z,101026.31
2022-11-29T15:44:02.543Z,101029.97
2022-11-29T15:46:32.149Z,101028.09
2022-11-29T15:49:25.071Z,101033.72
2022-11-29T15:52:08.408Z,101020.91
2022-11-29T15:54:41.234Z,101027.44
2022-11-29T15:57:11.106Z,101037.47
2022-11-29T15:59:48.915Z,101030.28
2022-11-29T16:02:24.340Z,101034.03
2022-11-29T16:04:55.899Z,101033.28
2022-11-29T16:07:24.669Z,101037.03
2022-11-29T16:10:14.969Z,101033.94
2022-11-29T16:12:59.235Z,101032.91
2022-11-29T16:15:25.869Z,101032.91
2022-11-29T16:17:52.600Z,101038.34
2022-11-29T16:20:24.333Z,101041.38
2022-11-29T16:23:13.281Z,101042.56
2022-11-29T16:26:06.369Z,101042.41
2022-11-29T16:28:36.372Z,101039.19
2022-11-29T16:31:04.877Z,101045.38
2022-11-29T16:33:32.350Z,101045.28
2022-11-29T16:36:23.983Z,101049.88
2022-11-29T16:38:54.236Z,101054.94
2022-11-29T16:41:32.343Z,101062.06
2022-11-29T16:44:03.252Z,101059.81
2022-11-29T16:46:35.965Z,101066.66
2022-11-29T16:49:35.915Z,101063.34
2022-11-29T16:52:04.326Z,101057.00
2022-11-29T16:54:34.077Z,101064.41
2022-11-29T16:57:05.408Z,101068.78
2022-11-29T16:59:32.570Z,101074.03
2022-11-29T17:01:59.439Z,101070.00
2022-11-29T17:04:26.616Z,101077.69
2022-11-29T17:06:55.143Z,101079.66
2022-11-29T17:09:27.915Z,101081.91
2022-11-29T17:11:55.702Z,101081.06
2022-11-29T17:14:23.106Z,101082.09
2022-11-29T17:16:50.581Z,101085.13
2022-11-29T17:19:18.535Z,101080.88
2022-11-29T17:21:45.548Z,101092.88
2022-11-29T17:24:15.825Z,101100.84
2022-11-29T17:26:43.503Z,101090.72
2022-11-29T17:29:11.918Z,101096.72
2022-11-29T17:31:38.992Z,101090.47
2022-11-29T17:34:06.516Z,101094.94
2022-11-29T17:36:33.455Z,101094.38
2022-11-29T17:39:00.878Z,101103.09
2022-11-29T17:41:28.701Z,101094.09
2022-11-29T17:43:56.679Z,101096.72
2022-11-29T17:46:27.561Z,101102.91
2022-11-29T17:48:55.718Z,101095.88
2022-11-29T17:54:11.275Z,101106.19
2022-11-29T17:56:37.961Z,101105.81
2022-11-29T17:59:05.216Z,101103.88
2022-11-29T18:01:34.717Z,101107.91
2022-11-29T18:04:03.207Z,101110.97
2022-11-29T18:06:35.254Z,101119.13
2022-11-29T18:09:06.083Z,101111.34
2022-11-29T18:11:48.013Z,101119.31
2022-11-29T18:14:19.188Z,101119.13
2022-11-29T18:16:46.029Z,101112.94
2022-11-29T18:19:15.807Z,101120.63
2022-11-29T18:21:42.851Z,101112.09
2022-11-29T18:24:10.311Z,101116.59
2022-11-29T18:26:39.174Z,101120.34
2022-11-29T18:29:06.688Z,101110.13
2022-11-29T18:31:36.373Z,101119.72
2022-11-29T18:34:11.909Z,101116.91
2022-11-29T18:36:44.966Z,101108.38
2022-11-29T18:39:20.079Z,101117.47
2022-11-29T18:41:48.717Z,101114.03
2022-11-29T18:44:17.492Z,101111.84
2022-11-29T18:46:45.433Z,101121.22
2022-11-29T18:49:14.801Z,101124.59
2022-11-29T18:51:44.780Z,101119.81
2022-11-29T18:54:12.918Z,101115.88
2022-11-29T18:56:40.114Z,101117.00
2022-11-29T18:59:10.476Z,101115.19
2022-11-29T19:01:41.305Z,101113.06
2022-11-29T19:04:11.025Z,101108.09
2022-11-29T19:06:39.934Z,101111.75
2022-11-29T19:09:11.973Z,101112.22
2022-11-29T19:11:38.964Z,101108.38
2022-11-29T19:14:11.445Z,101114.56
2022-11-29T19:16:43.470Z,101111.94
2022-11-29T19:19:11.139Z,101111.47
2022-11-29T19:21:39.915Z,101117.00
2022-11-29T19:24:13.933Z,101114.56
2022-11-29T19:26:41.748Z,101113.53
2022-11-29T19:29:08.405Z,101116.16
2022-11-29T19:31:35.111Z,101112.88
2022-11-29T19:34:01.793Z,101123.22
2022-11-29T19:36:30.631Z,101120.94
2022-11-29T19:39:00.127Z,101113.16
2022-11-29T19:41:32.457Z,101114.38
2022-11-29T19:44:01.991Z,101122.81
2022-11-29T19:46:35.274Z,101119.34
2022-11-29T19:49:03.501Z,101123.28
2022-11-29T19:51:30.955Z,101122.63
2022-11-29T19:54:00.340Z,101116.84
2022-11-29T19:56:28.266Z,101120.75
2022-11-29T19:58:55.364Z,101120.75
2022-11-29T20:01:37.905Z,101114.75
2022-11-29T20:04:07.498Z,101121.34
2022-11-29T20:06:34.696Z,101119.25
2022-11-29T20:09:02.196Z,101126.38
2022-11-29T20:11:29.225Z,101123.38
2022-11-29T20:14:01.205Z,101124.88
2022-11-29T20:16:29.663Z,101121.13
2022-11-29T20:18:56.998Z,101117.56
2022-11-29T20:21:27.325Z,101114.75
2022-11-29T20:23:59.505Z,101118.03
2022-11-29T20:26:27.724Z,101121.50
2022-11-29T20:28:54.632Z,101122.47
2022-11-29T20:31:23.312Z,101128.34
2022-11-29T20:33:52.869Z,101134.28
2022-11-29T20:36:38.613Z,101129.00
2022-11-29T20:39:26.327Z,101124.81
2022-11-29T20:41:52.925Z,101121.03
2022-11-29T20:44:44.284Z,101123.56
2022-11-29T20:47:22.511Z,101121.50
2022-11-29T20:49:49.414Z,101121.59
2022-11-29T20:52:37.598Z,101119.06
2022-11-29T20:55:05.050Z,101114.75
2022-11-29T20:57:31.856Z,101122.00
2022-11-29T21:00:00.058Z,101118.44
2022-11-29T21:02:26.703Z,101119.06
2022-11-29T21:04:53.364Z,101113.81
2022-11-29T21:07:20.139Z,101117.22
2022-11-29T21:09:46.851Z,101114.75
2022-11-29T21:12:13.974Z,101118.25
2022-11-29T21:14:40.955Z,101115.34
2022-11-29T21:17:08.858Z,101113.94
2022-11-29T21:19:36.406Z,101112.88
2022-11-29T21:22:26.474Z,101101.81
2022-11-29T21:25:12.166Z,101100.69
2022-11-29T21:27:39.166Z,101098.34
2022-11-29T21:30:07.104Z,101106.41
2022-11-29T21:32:34.326Z,101101.47
2022-11-29T21:35:00.985Z,101104.53
2022-11-29T21:37:30.821Z,101111.47
2022-11-29T21:39:57.696Z,101109.88
2022-11-29T21:42:24.494Z,101111.00
2022-11-29T21:44:51.155Z,101105.00
2022-11-29T21:47:17.816Z,101108.94
2022-11-29T21:49:45.012Z,101108.00
2022-11-29T21:52:11.718Z,101092.63
2022-11-29T21:54:39.301Z,101099.66
2022-11-29T21:57:06.160Z,101112.59
2022-11-29T21:59:32.914Z,101103.78
2022-11-29T22:01:59.845Z,101111.19
2022-11-29T22:04:26.869Z,101101.91
2022-11-29T22:06:53.585Z,101109.97
2022-11-29T22:09:20.491Z,101111.38
2022-11-29T22:11:47.166Z,101099.75
2022-11-29T22:14:18.885Z,101103.03
2022-11-29T22:16:54.250Z,101097.88
2022-11-29T22:19:22.216Z,101105.75
2022-11-29T22:21:52.040Z,101092.09
2022-11-29T22:24:21.608Z,101091.22
2022-11-29T22:26:49.478Z,101082.31
2022-11-29T22:29:16.668Z,101089.25
2022-11-29T22:31:45.727Z,101086.34
2022-11-29T22:34:13.191Z,101096.84
2022-11-29T22:36:41.003Z,101096.47
2022-11-29T22:39:09.120Z,101099.75
2022-11-29T22:41:38.355Z,101095.34
2022-11-29T22:44:05.633Z,101094.13
2022-11-29T22:46:33.015Z,101095.25
2022-11-29T22:49:00.647Z,101099.19
2022-11-29T22:51:32.383Z,101091.69
2022-11-29T22:54:01.449Z,101094.31
2022-11-29T22:56:31.448Z,101092.44
2022-11-29T22:58:58.283Z,101095.34
2022-11-29T23:01:27.331Z,101097.59
2022-11-29T23:03:56.502Z,101097.06
2022-11-29T23:06:25.359Z,101097.13
2022-11-29T23:08:54.589Z,101089.19
2022-11-29T23:11:26.880Z,101086.34
2022-11-29T23:13:54.389Z,101075.38
2022-11-29T23:16:24.619Z,101088.78
2022-11-29T23:18:52.422Z,101094.69
2022-11-29T23:21:25.589Z,101088.13
2022-11-29T23:23:56.332Z,101089.91
2022-11-29T23:26:26.441Z,101083.66
2022-11-29T23:28:54.177Z,101087.78
2022-11-29T23:31:21.803Z,101078.28
2022-11-29T23:33:48.952Z,101080.25
2022-11-29T23:36:16.896Z,101084.00
2022-11-29T23:38:43.958Z,101081.31
2022-11-29T23:41:12.898Z,101076.31
2022-11-29T23:43:40.953Z,101086.06
2022-11-29T23:46:15.556Z,101087.75
2022-11-29T23:48:42.981Z,101079.22
2022-11-29T23:51:09.644Z,101084.38
2022-11-29T23:53:36.577Z,101089.34
2022-11-29T23:56:06.273Z,101083.63
2022-11-29T23:58:34.028Z,101072.09
